Time;durP1;ratioP1;P1;durP2;ratioP2;P2;SDS_P1;SDS_P2;PMS_P1;PMS_P2;Temp;Humidity;BMP_temperature;BMP_pressure;BME280_temperature;BME280_humidity;BME280_pressure;Samples;Min_cycle;Max_cycle;Signal;HPM_P1;HPM_P2
2022/11/09 00:00:29;;;;;;;40.92;15.88;;;;;;;-0.05;100.00;100084.85;1630723;87;20955;-74
2022/11/09 00:03:02;;;;;;;26.33;15.90;;;;;;;-0.07;100.00;100095.88;1650294;85;21048;-73
2022/11/09 00:05:37;;;;;;;34.58;16.57;;;;;;;-0.07;100.00;100086.96;1649644;86;21464;-73
2022/11/09 00:08:09;;;;;;;30.25;16.10;;;;;;;-0.08;100.00;100095.58;1638710;86;21128;-73
2022/11/09 00:10:37;;;;;;;28.45;15.90;;;;;;;-0.09;100.00;100096.64;1645855;86;20880;-74
2022/11/09 00:13:09;;;;;;;30.50;16.52;;;;;;;-0.11;100.00;100093.35;1642007;86;21562;-74
2022/11/09 00:15:40;;;;;;;30.15;16.57;;;;;;;-0.13;100.00;100101.38;1653392;86;21475;-74
2022/11/09 00:18:10;;;;;;;27.93;16.05;;;;;;;-0.16;100.00;100099.97;1639689;85;21233;-74
2022/11/09 00:20:42;;;;;;;33.55;15.85;;;;;;;-0.17;100.00;100101.55;1646705;86;20965;-74
2022/11/09 00:23:15;;;;;;;28.52;14.78;;;;;;;-0.19;100.00;100092.87;1638261;86;21162;-74
2022/11/09 00:25:49;;;;;;;29.00;14.68;;;;;;;-0.20;100.00;100097.44;1645374;86;21234;-75
2022/11/09 00:28:19;;;;;;;26.12;15.40;;;;;;;-0.21;100.00;100099.84;1641322;86;21051;-75
2022/11/09 00:30:49;;;;;;;29.70;16.20;;;;;;;-0.21;100.00;100089.58;1650283;86;20928;-75
2022/11/09 00:33:17;;;;;;;26.37;15.43;;;;;;;-0.21;100.00;100098.49;1642330;86;21059;-74
2022/11/09 00:35:51;;;;;;;31.30;15.30;;;;;;;-0.23;100.00;100096.55;1639416;85;21853;-72
2022/11/09 00:38:23;;;;;;;25.37;14.47;;;;;;;-0.24;100.00;100099.48;1641311;86;20981;-73
2022/11/09 00:41:01;;;;;;;28.32;15.40;;;;;;;-0.27;100.00;100096.72;1644664;86;21039;-72
2022/11/09 00:43:32;;;;;;;31.05;15.30;;;;;;;-0.28;100.00;100101.82;1666684;85;20952;-74
2022/11/09 00:45:58;;;;;;;32.00;17.02;;;;;;;-0.29;100.00;100099.35;1648659;86;21081;-74
2022/11/09 00:48:33;;;;;;;32.73;17.30;;;;;;;-0.31;100.00;100100.94;1656271;86;21171;-73
2022/11/09 00:51:07;;;;;;;32.78;18.98;;;;;;;-0.33;100.00;100111.13;1659533;85;20999;-73
2022/11/09 00:53:39;;;;;;;43.33;20.57;;;;;;;-0.35;100.00;100102.45;1668905;85;20987;-73
2022/11/09 00:56:10;;;;;;;39.27;19.40;;;;;;;-0.37;100.00;100107.25;1657469;85;20975;-73
2022/11/09 00:58:37;;;;;;;36.00;17.65;;;;;;;-0.39;100.00;100109.36;1660032;85;21003;-73
2022/11/09 01:01:14;;;;;;;32.10;16.75;;;;;;;-0.41;100.00;100101.49;1660057;85;21153;-74
2022/11/09 01:03:43;;;;;;;39.25;16.57;;;;;;;-0.40;100.00;100105.02;1662475;85;21536;-74
2022/11/09 01:06:18;;;;;;;28.73;16.85;;;;;;;-0.40;100.00;100099.09;1654499;84;21513;-74
2022/11/09 01:08:50;;;;;;;34.50;17.57;;;;;;;-0.41;100.00;100102.84;1622787;87;20929;-74
2022/11/09 01:11:27;;;;;;;31.90;15.32;;;;;;;-0.39;100.00;100106.66;1583895;89;20964;-73
2022/11/09 01:14:02;;;;;;;31.68;15.95;;;;;;;-0.42;100.00;100108.47;1584655;89;21007;-72
2022/11/09 01:16:35;;;;;;;35.43;15.40;;;;;;;-0.45;100.00;100104.35;1606461;89;21617;-72
2022/11/09 01:19:10;;;;;;;31.60;16.80;;;;;;;-0.46;100.00;100106.75;1584578;89;21002;-72
2022/11/09 01:21:42;;;;;;;31.80;14.38;;;;;;;-0.47;100.00;100108.33;1606122;89;20967;-73
2022/11/09 01:24:10;;;;;;;31.68;16.60;;;;;;;-0.49;100.00;100101.82;1606187;89;20927;-73
2022/11/09 01:26:45;;;;;;;32.00;15.53;;;;;;;-0.50;100.00;100104.22;1586230;89;21275;-73
2022/11/09 01:29:16;;;;;;;32.88;15.80;;;;;;;-0.50;100.00;100103.39;1584704;89;21023;-73
2022/11/09 01:31:49;;;;;;;30.97;16.00;;;;;;;-0.51;100.00;100101.75;1606364;89;20919;-72
2022/11/09 01:34:19;;;;;;;25.85;14.83;;;;;;;-0.52;100.00;100107.67;1606426;89;21507;-72
2022/11/09 01:36:51;;;;;;;30.82;16.70;;;;;;;-0.51;100.00;100107.14;1594734;86;20876;-72
2022/11/09 01:39:23;;;;;;;32.65;15.60;;;;;;;-0.52;100.00;100109.55;1640467;85;21751;-72
2022/11/09 01:41:58;;;;;;;27.65;15.65;;;;;;;-0.52;100.00;100105.50;1625647;88;20971;-72
2022/11/09 01:44:40;;;;;;;29.57;15.38;;;;;;;-0.53;100.00;100102.51;1607472;87;21058;-72
2022/11/09 01:47:25;;;;;;;32.25;16.20;;;;;;;-0.55;100.00;100097.34;1607861;87;20983;-72
2022/11/09 01:50:01;;;;;;;28.55;15.10;;;;;;;-0.57;100.00;100108.06;1627747;88;21128;-73
2022/11/09 01:52:37;;;;;;;32.13;16.45;;;;;;;-0.58;100.00;100109.97;1609497;87;21137;-73
2022/11/09 01:55:15;;;;;;;31.82;16.10;;;;;;;-0.59;100.00;100103.45;1663829;85;21642;-73
2022/11/09 01:57:53;;;;;;;25.52;14.43;;;;;;;-0.60;100.00;100109.38;1666577;85;20957;-73
2022/11/09 02:00:23;;;;;;;28.00;15.00;;;;;;;-0.60;100.00;100108.55;1637793;86;21032;-73
2022/11/09 02:03:19;;;;;;;29.85;15.03;;;;;;;-0.60;100.00;100108.55;1661392;86;21468;-74
2022/11/09 02:05:49;;;;;;;29.32;15.35;;;;;;;-0.60;100.00;100108.02;1641549;85;20861;-73
2022/11/09 02:08:21;;;;;;;30.35;16.00;;;;;;;-0.62;100.00;100104.73;1646773;86;20874;-73
2022/11/09 02:11:04;;;;;;;33.08;16.67;;;;;;;-0.63;100.00;100110.36;1638430;86;20917;-73
2022/11/09 02:13:35;;;;;;;;;;;;;;;-0.65;100.00;100110.59;1670683;85;21101;-74
2022/11/09 02:16:14;;;;;;;28.38;14.33;;;;;;;-0.68;100.00;100111.86;1668288;85;20101;-74
2022/11/09 02:18:50;;;;;;;31.57;15.75;;;;;;;-0.69;100.00;100115.61;1665418;85;21193;-74
2022/11/09 02:21:23;;;;;;;30.57;15.10;;;;;;;-0.70;100.00;100108.58;1674312;85;21442;-74
2022/11/09 02:23:54;;;;;;;33.18;16.35;;;;;;;-0.72;100.00;100110.67;1656963;85;21028;-74
2022/11/09 02:26:53;;;;;;;31.33;15.85;;;;;;;-0.72;100.00;100110.67;1672779;85;20930;-74
2022/11/09 02:29:37;;;;;;;33.28;16.50;;;;;;;-0.72;100.00;100105.81;1671238;85;20930;-73
2022/11/09 02:32:19;;;;;;;36.08;16.57;;;;;;;-0.72;100.00;100108.50;1641873;85;20970;-73
2022/11/09 02:34:48;;;;;;;36.10;17.65;;;;;;;-0.73;100.00;100107.69;1637196;86;20962;-74
2022/11/09 02:37:40;;;;;;;34.50;16.60;;;;;;;-0.75;100.00;100111.13;1672436;85;21469;-75
2022/11/09 02:40:22;;;;;;;35.58;16.30;;;;;;;-0.75;100.00;100110.30;1672912;85;21096;-73
2022/11/09 02:42:55;;;;;;;38.02;18.20;;;;;;;-0.77;100.00;100114.58;1667435;85;21552;-73
2022/11/09 02:45:30;;;;;;;35.17;18.42;;;;;;;-0.77;100.00;100114.58;1668368;85;21133;-73
2022/11/09 02:48:01;;;;;;;38.28;18.20;;;;;;;-0.76;100.00;100114.05;1672212;85;20950;-73
2022/11/09 02:50:32;;;;;;;43.10;20.50;;;;;;;-0.75;100.00;100115.70;1668593;86;20902;-73
2022/11/09 02:53:03;;;;;;;37.05;19.10;;;;;;;-0.76;100.00;100112.70;1669461;86;20906;-74
2022/11/09 02:55:34;;;;;;;36.88;19.32;;;;;;;-0.75;100.00;100119.75;1673981;84;20935;-75
2022/11/09 02:58:10;;;;;;;43.40;20.00;;;;;;;-0.76;100.00;100120.27;1685505;84;21264;-74
2022/11/09 03:00:43;;;;;;;45.80;20.77;;;;;;;-0.78;100.00;100122.89;1688539;84;21598;-75
2022/11/09 03:03:13;;;;;;;37.65;20.08;;;;;;;-0.80;100.00;100123.13;1692973;84;20920;-75
2022/11/09 03:05:43;;;;;;;41.35;19.67;;;;;;;-0.81;100.00;100126.05;1695496;84;20967;-74
2022/11/09 03:08:14;;;;;;;39.33;19.85;;;;;;;-0.80;100.00;100126.34;1657983;85;20944;-74
2022/11/09 03:10:44;;;;;;;39.60;20.80;;;;;;;-0.80;100.00;100123.13;1663030;86;21455;-72
2022/11/09 03:13:18;;;;;;;42.00;20.90;;;;;;;-0.80;100.00;100126.34;1661901;85;20984;-73
2022/11/09 03:15:57;;;;;;;37.13;19.15;;;;;;;-0.82;100.00;100121.17;1643404;86;20924;-72
2022/11/09 03:18:21;;;;;;;31.52;17.20;;;;;;;-0.83;100.00;100122.23;1653084;86;21050;-77
2022/11/09 03:20:57;;;;;;;36.45;18.17;;;;;;;-0.82;100.00;100123.05;1658349;84;21462;-75
2022/11/09 03:23:28;;;;;;;35.68;18.25;;;;;;;-0.82;100.00;100122.53;1651286;84;21880;-74
2022/11/09 03:25:56;;;;;;;;;;;;;;;-0.81;100.00;100122.83;1654430;84;21019;-74
2022/11/09 03:28:24;;;;;;;34.90;16.40;;;;;;;-0.82;100.00;100123.88;1649699;86;20115;-74
2022/11/09 03:30:56;;;;;;;30.90;16.23;;;;;;;-0.84;100.00;100124.63;1656393;85;21518;-74
2022/11/09 03:33:32;;;;;;;31.93;16.05;;;;;;;-0.85;100.00;100122.16;1646325;86;20996;-74
2022/11/09 03:36:01;;;;;;;30.12;16.05;;;;;;;-0.86;100.00;100124.55;1643882;86;21292;-74
2022/11/09 03:38:35;;;;;;;30.27;15.85;;;;;;;-0.88;100.00;100126.13;1642611;85;20951;-74
2022/11/09 03:41:09;;;;;;;40.85;16.50;;;;;;;-0.88;100.00;100126.13;1661260;85;20969;-73
2022/11/09 03:43:41;;;;;;;51.55;16.75;;;;;;;-0.87;100.00;100123.73;1650877;86;20941;-72
2022/11/09 03:46:10;;;;;;;69.22;21.77;;;;;;;-0.89;100.00;100127.18;1664124;85;21098;-72
2022/11/09 03:48:41;;;;;;;84.32;22.60;;;;;;;-0.90;100.00;100128.75;1621322;86;21063;-74
2022/11/09 03:51:09;;;;;;;80.25;23.25;;;;;;;-0.93;100.00;100127.33;1648539;85;20952;-74
2022/11/09 03:53:38;;;;;;;77.15;22.58;;;;;;;-0.93;100.00;100125.98;1646553;85;21023;-74
2022/11/09 03:56:07;;;;;;;61.15;21.10;;;;;;;-0.94;100.00;100127.56;1633071;86;21033;-75
2022/11/09 03:58:33;;;;;;;45.40;18.50;;;;;;;-0.97;100.00;100121.27;1662798;85;20903;-75
2022/11/09 04:01:08;;;;;;;57.93;19.45;;;;;;;-0.99;100.00;100120.15;1642497;85;21572;-73
2022/11/09 04:03:36;;;;;;;56.00;20.72;;;;;;;-1.00;100.00;100122.02;1626790;88;21024;-75
2022/11/09 04:06:07;;;;;;;65.08;21.48;;;;;;;-1.01;100.00;100123.59;1642111;86;20999;-73
2022/11/09 04:08:44;;;;;;;46.68;18.70;;;;;;;-1.02;100.00;100121.95;1593268;89;20952;-73
2022/11/09 04:11:24;;;;;;;67.42;22.67;;;;;;;-1.04;100.00;100116.78;1665305;85;20981;-72
2022/11/09 04:13:52;;;;;;;61.25;22.65;;;;;;;-1.03;100.00;100116.27;1656819;85;21137;-73
2022/11/09 04:16:18;;;;;;;65.45;24.70;;;;;;;-1.04;100.00;100118.66;1656460;85;20900;-74
2022/11/09 04:18:46;;;;;;;64.87;22.25;;;;;;;-1.04;100.00;100116.78;1661791;85;20979;-74
2022/11/09 04:21:20;;;;;;;59.10;21.85;;;;;;;-1.04;100.00;100122.17;1645480;86;21031;-74
2022/11/09 04:23:53;;;;;;;44.55;20.43;;;;;;;-1.04;100.00;100125.39;1648223;85;20991;-73
2022/11/09 04:26:21;;;;;;;45.73;19.10;;;;;;;-1.04;100.00;100124.05;1658854;85;21581;-73
2022/11/09 04:28:54;;;;;;;41.08;19.75;;;;;;;-1.04;100.00;100127.56;1708063;83;20884;-74
2022/11/09 04:31:23;;;;;;;38.33;18.92;;;;;;;-1.05;100.00;100127.27;1701115;83;21467;-74
2022/11/09 04:33:56;;;;;;;38.38;17.73;;;;;;;-1.05;100.00;100131.31;1701039;83;20994;-76
2022/11/09 04:36:32;;;;;;;40.23;17.98;;;;;;;-1.07;100.00;100132.58;1667402;85;21435;-76
2022/11/09 04:39:01;;;;;;;35.10;18.20;;;;;;;-1.09;100.00;100131.98;1694851;83;21131;-75
2022/11/09 04:41:34;;;;;;;34.30;17.27;;;;;;;-1.09;100.00;100140.06;1703950;83;21015;-79
2022/11/09 04:44:06;;;;;;;41.73;15.95;;;;;;;-1.10;100.00;100139.77;1670348;84;20974;-78
2022/11/09 04:46:40;;;;;;;40.90;18.35;;;;;;;-1.13;100.00;100137.00;1613450;86;21439;-76
2022/11/09 04:49:13;;;;;;;40.75;18.48;;;;;;;-1.12;100.00;100145.91;1657354;85;20971;-74
2022/11/09 04:51:46;;;;;;;37.90;19.62;;;;;;;-1.12;100.00;100154.81;1662447;83;21534;-77
2022/11/09 04:54:13;;;;;;;41.18;18.00;;;;;;;-1.11;100.00;100150.25;1681608;83;21160;-86
2022/11/09 04:56:40;;;;;;;33.45;17.23;;;;;;;-1.10;100.00;100146.50;1689585;84;20959;-82
2022/11/09 04:59:19;;;;;;;44.18;18.10;;;;;;;-1.08;100.00;100150.62;1693831;83;21075;-80
2022/11/09 05:01:44;;;;;;;37.00;19.23;;;;;;;-1.08;100.00;100153.31;1686464;84;21454;-87
2022/11/09 05:04:15;;;;;;;35.80;18.45;;;;;;;-1.09;100.00;100152.19;1686381;83;20985;-80
2022/11/09 05:06:45;;;;;;;43.92;19.00;;;;;;;-1.11;100.00;100152.94;1687682;83;21040;-84
2022/11/09 05:09:17;;;;;;;39.70;19.37;;;;;;;-1.12;100.00;100161.55;1684661;84;21541;-79
2022/11/09 05:11:50;;;;;;;37.60;18.90;;;;;;;-1.13;100.00;100165.81;1683274;83;21507;-79
2022/11/09 05:14:21;;;;;;;39.58;18.82;;;;;;;-1.12;100.00;100171.50;1637111;85;21080;-76
2022/11/09 05:16:52;;;;;;;38.63;18.82;;;;;;;-1.11;100.00;100170.45;1629787;87;21184;-74
2022/11/09 05:19:24;;;;;;;41.00;18.85;;;;;;;-1.08;100.00;100172.70;1630216;87;20921;-73
2022/11/09 05:21:54;;;;;;;40.65;19.92;;;;;;;-1.06;100.00;100176.00;1633118;87;21028;-76
2022/11/09 05:24:20;;;;;;;36.48;19.73;;;;;;;-1.05;100.00;100172.25;1631896;86;20977;-77
2022/11/09 05:26:49;;;;;;;37.33;19.23;;;;;;;-1.04;100.00;100179.29;1673822;83;20971;-77
2022/11/09 05:29:19;;;;;;;36.47;19.37;;;;;;;-1.02;100.00;100179.36;1685259;83;21805;-76
2022/11/09 05:31:46;;;;;;;41.77;19.92;;;;;;;-0.98;100.00;100185.13;1686997;82;21293;-76
2022/11/09 05:34:20;;;;;;;42.55;19.95;;;;;;;-0.95;100.00;100179.81;1689807;84;20975;-81
2022/11/09 05:36:55;;;;;;;41.28;19.37;;;;;;;-0.92;100.00;100186.92;1657952;85;20935;-75
2022/11/09 05:39:29;;;;;;;37.80;18.87;;;;;;;-0.88;100.00;100188.12;1697905;83;21050;-76
2022/11/09 05:42:01;;;;;;;41.98;18.57;;;;;;;-0.82;100.00;100187.22;1656242;85;21286;-79
2022/11/09 05:44:32;;;;;;;43.55;20.30;;;;;;;-0.76;100.00;100188.19;1658959;85;21454;-79
2022/11/09 05:47:01;;;;;;;36.03;19.98;;;;;;;-0.71;100.00;100193.73;1659617;84;20947;-80
2022/11/09 05:49:32;;;;;;;44.67;20.45;;;;;;;-0.64;100.00;100193.66;1639534;86;28123;-78
2022/11/09 05:52:00;;;;;;;44.20;19.95;;;;;;;-0.58;100.00;100196.80;1658292;84;20983;-79
2022/11/09 05:54:31;;;;;;;43.92;21.82;;;;;;;-0.50;100.00;100203.19;1674706;83;21753;-76
2022/11/09 05:57:02;;;;;;;49.70;22.40;;;;;;;-0.41;100.00;100203.17;1685790;83;21027;-77
2022/11/09 05:59:35;;;;;;;46.10;22.82;;;;;;;-0.32;100.00;100200.46;1686805;83;21026;-78
2022/11/09 06:02:03;;;;;;;54.07;23.37;;;;;;;-0.22;100.00;100205.31;1678681;84;20903;-77
2022/11/09 06:04:32;;;;;;;56.02;23.77;;;;;;;-0.12;100.00;100201.01;1688380;84;20952;-78
2022/11/09 06:06:59;;;;;;;45.43;21.93;;;;;;;-0.02;100.00;100197.23;1674383;83;21732;-78
2022/11/09 06:09:26;;;;;;;51.83;23.42;;;;;;;0.11;100.00;100206.15;1682078;84;21554;-73
2022/11/09 06:11:54;;;;;;;48.85;22.80;;;;;;;0.23;100.00;100205.65;1693045;83;21014;-78
2022/11/09 06:14:26;;;;;;;;;;;;;;;0.35;100.00;100210.55;1678483;81;21114;-78
2022/11/09 06:16:57;;;;;;;44.25;21.07;;;;;;;0.50;100.00;100207.39;1664891;83;20093;-73
2022/11/09 06:19:25;;;;;;;52.35;25.12;;;;;;;0.61;100.00;100208.72;1712318;81;21068;-73
2022/11/09 06:21:54;;;;;;;104.50;35.55;;;;;;;0.74;100.00;100214.42;1725441;82;20966;-73
2022/11/09 06:24:25;;;;;;;471.27;135.25;;;;;;;0.93;100.00;100215.95;1709577;81;20950;-73
2022/11/09 06:26:56;;;;;;;302.68;87.92;;;;;;;1.41;100.00;100218.02;1719271;81;20982;-79
2022/11/09 06:29:22;;;;;;;111.25;46.35;;;;;;;2.00;100.00;100214.02;1722907;82;21013;-78
2022/11/09 06:31:52;;;;;;;75.92;34.95;;;;;;;2.65;100.00;100211.58;1685961;83;21443;-84
2022/11/09 06:34:24;;;;;;;56.58;29.42;;;;;;;3.33;100.00;100219.57;1653359;85;20948;-86
2022/11/09 06:36:53;;;;;;;64.67;30.08;;;;;;;3.90;100.00;100219.42;1619813;87;21139;-78
2022/11/09 06:39:23;;;;;;;43.80;24.10;;;;;;;4.38;100.00;100217.69;1627568;86;21019;-85
2022/11/09 06:41:50;;;;;;;40.63;25.00;;;;;;;4.84;100.00;100224.28;1621952;87;21147;-75
2022/11/09 06:44:21;;;;;;;37.60;24.18;;;;;;;5.09;100.00;100218.73;1624894;86;21113;-76
2022/11/09 06:46:54;;;;;;;41.40;23.77;;;;;;;5.28;100.00;100218.00;1621815;86;20921;-78
2022/11/09 06:49:27;;;;;;;38.23;23.65;;;;;;;5.52;100.00;100224.38;1618431;87;21012;-80
2022/11/09 06:51:55;;;;;;;34.43;22.52;;;;;;;5.70;100.00;100225.27;1620452;87;21503;-79
2022/11/09 06:54:24;;;;;;;36.83;22.85;;;;;;;5.84;100.00;100227.74;1599837;88;21045;-74
2022/11/09 06:56:54;;;;;;;35.48;22.80;;;;;;;5.94;100.00;100222.90;1628868;88;21173;-73
2022/11/09 06:59:21;;;;;;;33.23;23.27;;;;;;;6.04;100.00;100224.83;1626883;86;20916;-74
2022/11/09 07:01:55;;;;;;;38.70;24.18;;;;;;;6.12;100.00;100222.39;1602273;87;21042;-77
2022/11/09 07:04:27;;;;;;;40.83;24.98;;;;;;;6.25;100.00;100219.15;1624627;86;21574;-81
2022/11/09 07:06:56;;;;;;;43.42;32.50;;;;;;;6.49;100.00;100215.87;1624417;86;21094;-76
2022/11/09 07:09:24;;;;;;;45.43;30.55;;;;;;;6.78;100.00;100223.78;1622468;87;21085;-73
2022/11/09 07:11:54;;;;;;;52.70;37.53;;;;;;;7.15;100.00;100222.61;1632286;86;20994;-72
2022/11/09 07:14:23;;;;;;;59.67;42.88;;;;;;;7.37;100.00;100221.73;1654654;85;21014;-76
2022/11/09 07:16:52;;;;;;;57.05;39.33;;;;;;;7.53;100.00;100221.10;1669628;84;21542;-73
2022/11/09 07:19:21;;;;;;;49.90;35.98;;;;;;;7.66;100.00;100216.95;1674974;84;21054;-74
2022/11/09 07:21:57;;;;;;;49.60;35.55;;;;;;;7.69;100.00;100218.58;1666009;83;21604;-73
2022/11/09 07:24:27;;;;;;;46.77;32.50;;;;;;;7.78;100.00;100228.38;1688017;83;21061;-73
2022/11/09 07:27:02;;;;;;;43.30;28.62;;;;;;;7.92;100.00;100226.67;1658984;84;42339;-73
2022/11/09 07:29:32;;;;;;;44.60;27.62;;;;;;;8.10;100.00;100225.17;1643713;85;21092;-74
2022/11/09 07:32:03;;;;;;;45.67;28.30;;;;;;;8.27;100.00;100227.80;1651323;85;21122;-77
2022/11/09 07:34:34;;;;;;;44.53;26.53;;;;;;;8.36;100.00;100230.78;1656621;85;21939;-81
2022/11/09 07:37:03;;;;;;;47.93;26.73;;;;;;;8.53;100.00;100233.13;1679736;83;20907;-75
2022/11/09 07:39:34;;;;;;;54.03;30.65;;;;;;;8.85;100.00;100224.35;1646435;84;21582;-76
2022/11/09 07:42:11;;;;;;;57.33;33.02;;;;;;;9.08;98.89;100219.48;1679422;83;21486;-81
2022/11/09 07:44:38;;;;;;;48.73;29.25;;;;;;;9.23;98.65;100222.61;1678016;83;20960;-77
2022/11/09 07:47:36;;;;;;;48.13;30.17;;;;;;;9.56;98.41;100222.22;1663107;83;21559;-83
2022/11/09 07:50:17;;;;;;;45.60;25.92;;;;;;;9.90;98.21;100226.96;1679480;83;21565;-77
2022/11/09 07:52:38;;;;;;;41.35;25.32;;;;;;;10.42;96.04;100226.50;1677462;82;21432;-77
2022/11/09 07:55:10;;;;;;;40.17;25.15;;;;;;;10.73;93.97;100220.52;1663989;83;21027;-77
2022/11/09 07:57:43;;;;;;;41.83;24.65;;;;;;;10.96;92.66;100216.83;1693111;84;21002;-78
2022/11/09 08:00:11;;;;;;;46.30;24.07;;;;;;;11.19;91.52;100219.13;1677198;84;20963;-81
2022/11/09 08:02:46;;;;;;;53.42;26.57;;;;;;;11.47;90.06;100218.05;1665582;84;20951;-82
2022/11/09 08:05:22;;;;;;;46.13;24.35;;;;;;;11.66;89.08;100222.03;1663071;83;21553;-82
2022/11/09 08:08:01;;;;;;;38.20;23.25;;;;;;;11.93;88.42;100227.30;1664906;83;20949;-75
2022/11/09 08:10:31;;;;;;;44.80;26.23;;;;;;;12.30;88.07;100226.16;1676686;84;20943;-83
2022/11/09 08:13:05;;;;;;;33.18;21.70;;;;;;;12.73;85.69;100230.62;1692298;83;21150;-82
2022/11/09 08:15:41;;;;;;;44.93;24.40;;;;;;;13.03;83.49;100215.25;1655829;85;20920;-81
2022/11/09 08:18:17;;;;;;;43.75;26.00;;;;;;;13.23;81.45;100218.07;1705027;82;20983;-84
2022/11/09 08:20:45;;;;;;;44.90;24.90;;;;;;;13.43;80.44;100214.16;1708157;83;20981;-83
2022/11/09 08:23:19;;;;;;;35.10;23.15;;;;;;;13.61;78.45;100209.52;1666521;83;21510;-76
2022/11/09 08:25:50;;;;;;;39.38;25.23;;;;;;;13.75;77.45;100214.92;1700484;83;21186;-77
2022/11/09 08:28:27;;;;;;;44.23;23.62;;;;;;;13.94;77.32;100215.43;1688868;83;21077;-78
2022/11/09 08:30:58;;;;;;;33.05;20.32;;;;;;;14.25;76.07;100213.94;1682845;82;20947;-76
2022/11/09 08:33:27;;;;;;;23.60;16.00;;;;;;;14.46;74.10;100212.72;1691027;84;21538;-78
2022/11/09 08:35:54;;;;;;;20.95;13.83;;;;;;;14.58;71.08;100213.45;1695294;83;21703;-80
2022/11/09 08:38:25;;;;;;;23.92;14.15;;;;;;;14.58;70.97;100209.30;1689322;83;21772;-76
2022/11/09 08:40:59;;;;;;;21.57;13.58;;;;;;;14.63;69.11;100211.91;1688817;84;21681;-82
2022/11/09 08:43:30;;;;;;;18.95;12.10;;;;;;;14.64;68.27;100206.05;1696690;83;21175;-79
2022/11/09 08:46:02;;;;;;;20.27;11.18;;;;;;;14.67;68.14;100205.97;1689306;84;20996;-76
2022/11/09 08:48:35;;;;;;;16.00;9.60;;;;;;;14.86;67.08;100198.95;1701426;81;21068;-76
2022/11/09 08:51:08;;;;;;;15.03;8.95;;;;;;;14.89;64.81;100199.44;1624664;86;21117;-77
2022/11/09 08:53:39;;;;;;;17.12;8.30;;;;;;;14.77;65.99;100191.24;1629198;87;21533;-84
2022/11/09 08:56:11;;;;;;;12.55;7.30;;;;;;;14.80;64.86;100196.11;1602816;88;20931;-75
2022/11/09 08:58:43;;;;;;;12.88;7.83;;;;;;;14.83;64.45;100200.98;1624433;87;21196;-77
2022/11/09 09:01:12;;;;;;;9.40;6.55;;;;;;;14.83;64.41;100197.41;1621979;87;21483;-79
2022/11/09 09:03:38;;;;;;;10.03;6.60;;;;;;;14.90;63.55;100197.72;1638814;85;21145;-89
2022/11/09 09:06:06;;;;;;;14.55;7.45;;;;;;;14.92;63.63;100193.25;1639797;85;21242;-83
2022/11/09 09:08:33;;;;;;;8.70;5.83;;;;;;;15.07;63.97;100200.41;1693301;83;21038;-86
2022/11/09 09:11:03;;;;;;;8.58;5.47;;;;;;;15.34;60.60;100197.00;1688175;84;21097;-78
2022/11/09 09:13:31;;;;;;;8.65;4.60;;;;;;;15.20;60.85;100204.13;1693881;84;21568;-76
2022/11/09 09:16:14;;;;;;;8.48;5.85;;;;;;;15.07;60.26;100197.65;1689265;84;21187;-76
2022/11/09 09:18:41;;;;;;;;;;;;;;;14.91;60.48;100193.82;1691664;83;21611;-81
2022/11/09 09:21:09;;;;;;;8.15;5.55;;;;;;;14.71;61.13;100187.03;1691671;83;20205;-77
2022/11/09 09:23:37;;;;;;;9.35;4.75;;;;;;;14.72;61.23;100183.13;1687848;84;20946;-76
2022/11/09 09:26:04;;;;;;;6.47;4.15;;;;;;;14.83;60.27;100184.98;1692879;84;21037;-82
2022/11/09 09:28:32;;;;;;;9.10;4.80;;;;;;;14.91;59.98;100192.44;1688044;84;21172;-77
2022/11/09 09:30:59;;;;;;;7.30;4.85;;;;;;;14.92;59.24;100180.81;1685330;84;20947;-82
2022/11/09 09:33:27;;;;;;;9.40;5.75;;;;;;;14.91;59.75;100185.53;1689040;84;21022;-80
2022/11/09 09:35:56;;;;;;;7.85;4.30;;;;;;;15.08;60.48;100179.92;1699833;84;20982;-80
2022/11/09 09:38:25;;;;;;;9.30;4.85;;;;;;;15.36;58.62;100179.50;1687513;83;21441;-77
2022/11/09 09:41:00;;;;;;;7.08;4.40;;;;;;;15.39;58.16;100178.83;1687888;84;21812;-78
2022/11/09 09:43:40;;;;;;;6.97;4.22;;;;;;;15.33;58.89;100179.59;1688362;84;20974;-81
2022/11/09 09:46:15;;;;;;;5.95;3.45;;;;;;;15.55;57.47;100172.98;1683999;84;20986;-74
2022/11/09 09:48:56;;;;;;;5.58;3.85;;;;;;;15.43;56.23;100177.84;1690525;83;21514;-74
2022/11/09 09:51:37;;;;;;;9.25;4.58;;;;;;;15.24;57.40;100184.91;1687617;83;20998;-74
2022/11/09 09:54:29;;;;;;;6.92;3.95;;;;;;;15.09;57.81;100187.07;1671372;83;21223;-76
2022/11/09 09:56:58;;;;;;;7.47;4.45;;;;;;;15.23;58.52;100179.95;1667080;85;20922;-73
2022/11/09 09:59:39;;;;;;;6.65;4.28;;;;;;;15.40;56.92;100185.98;1674752;84;20958;-74
2022/11/09 10:02:23;;;;;;;5.42;4.20;;;;;;;15.35;57.52;100184.22;1679522;84;20981;-73
2022/11/09 10:04:50;;;;;;;10.25;4.37;;;;;;;15.58;57.59;100182.60;1679970;85;20920;-75
2022/11/09 10:07:49;;;;;;;7.08;4.50;;;;;;;15.84;56.88;100184.62;1677428;83;21780;-74
2022/11/09 10:10:43;;;;;;;10.75;5.12;;;;;;;15.90;55.67;100174.16;1663338;84;21088;-74
2022/11/09 10:13:37;;;;;;;8.28;4.75;;;;;;;15.79;56.56;100167.63;1675775;83;21017;-81
2022/11/09 10:16:27;;;;;;;6.50;4.40;;;;;;;15.96;55.68;100164.52;1694146;83;20982;-79
2022/11/09 10:19:16;;;;;;;6.95;4.10;;;;;;;15.99;56.30;100160.50;1701793;84;21030;-74
2022/11/09 10:22:08;;;;;;;7.70;4.33;;;;;;;16.23;55.48;100158.41;1686603;83;21288;-76
2022/11/09 10:25:01;;;;;;;7.70;4.28;;;;;;;16.53;54.19;100163.86;1683842;84;20955;-78
2022/11/09 10:27:37;;;;;;;6.55;4.58;;;;;;;16.28;53.85;100158.78;1662591;84;21165;-74
2022/11/09 10:30:14;;;;;;;11.43;5.05;;;;;;;15.79;55.45;100156.55;1657503;85;20992;-78
2022/11/09 10:32:46;;;;;;;11.38;5.37;;;;;;;15.66;56.56;100158.19;1658381;85;21050;-78
2022/11/09 10:35:34;;;;;;;11.00;5.17;;;;;;;15.89;55.95;100156.73;1661039;85;21227;-78
2022/11/09 10:38:04;;;;;;;7.05;4.67;;;;;;;15.97;54.68;100151.72;1673989;83;20941;-75
2022/11/09 10:40:42;;;;;;;6.80;4.70;;;;;;;15.74;55.48;100144.87;1659860;84;21463;-76
2022/11/09 10:43:29;;;;;;;18.82;8.58;;;;;;;15.79;57.82;100148.25;1655397;85;21487;-76
2022/11/09 10:46:16;;;;;;;10.55;6.30;;;;;;;16.21;56.42;100135.78;1653943;85;21075;-76
2022/11/09 10:49:10;;;;;;;9.08;5.80;;;;;;;16.60;55.38;100137.79;1663564;84;21545;-76
2022/11/09 10:51:55;;;;;;;8.33;5.87;;;;;;;16.60;54.24;100128.09;1661859;85;21500;-77
2022/11/09 10:54:43;;;;;;;7.60;5.25;;;;;;;16.42;54.56;100132.41;1625999;87;20956;-73
2022/11/09 10:57:29;;;;;;;9.23;5.85;;;;;;;16.43;54.95;100135.42;1656935;85;20988;-74
2022/11/09 11:00:18;;;;;;;9.63;6.33;;;;;;;16.48;54.24;100131.63;1702093;83;21042;-71
2022/11/09 11:03:17;;;;;;;13.00;7.80;;;;;;;16.56;54.44;100128.53;1659835;85;21801;-73
2022/11/09 11:06:23;;;;;;;9.88;6.83;;;;;;;16.51;54.13;100131.75;1627436;85;21625;-74
2022/11/09 11:09:15;;;;;;;10.72;6.53;;;;;;;16.36;54.94;100124.08;1660844;85;21047;-73
2022/11/09 11:12:15;;;;;;;17.35;8.85;;;;;;;16.31;54.72;100124.28;1649227;86;20968;-74
2022/11/09 11:15:25;;;;;;;19.23;9.50;;;;;;;16.41;55.69;100121.09;1658549;85;20912;-74
2022/11/09 11:18:22;;;;;;;17.02;10.38;;;;;;;16.81;54.62;100117.17;1648294;85;21803;-73
2022/11/09 11:21:21;;;;;;;17.27;11.95;;;;;;;16.92;53.27;100112.00;1695446;83;21546;-77
2022/11/09 11:24:20;;;;;;;11.85;7.62;;;;;;;16.83;53.83;100114.06;1660128;85;21000;-78
2022/11/09 11:27:11;;;;;;;13.10;7.80;;;;;;;16.75;53.17;100115.77;1699560;83;20987;-81
2022/11/09 11:30:27;;;;;;;11.08;6.37;;;;;;;16.53;53.97;100115.36;1700873;83;20932;-85
2022/11/09 11:33:17;;;;;;;10.50;6.58;;;;;;;16.40;54.20;100111.16;1694039;83;21155;-85
2022/11/09 11:36:23;;;;;;;;;;;;;;;16.28;54.44;100112.50;1688778;82;21041;-83
2022/11/09 11:39:47;;;;;;;9.35;5.53;;;;;;;16.24;55.07;100108.78;1701435;83;20121;-82
2022/11/09 11:42:48;;;;;;;9.55;5.42;;;;;;;16.21;54.63;100109.47;1666401;85;21003;-80